createdAt,value
2016-03-27T00:00:18.358Z,0
2016-03-27T00:01:18.379Z,0
2016-03-27T00:02:18.366Z,0
2016-03-27T00:03:18.353Z,0
2016-03-27T00:04:18.372Z,0
2016-03-27T00:05:18.358Z,0
2016-03-27T00:06:18.377Z,0
2016-03-27T00:07:18.364Z,0
2016-03-27T00:08:18.352Z,0
2016-03-27T00:09:18.354Z,0
2016-03-27T00:10:18.341Z,0
2016-03-27T00:11:18.344Z,0
2016-03-27T00:12:18.346Z,0
2016-03-27T00:13:18.349Z,0
2016-03-27T00:14:18.335Z,0
2016-03-27T00:15:18.354Z,0
2016-03-27T00:16:18.403Z,0
2016-03-27T00:17:18.338Z,0
2016-03-27T00:18:18.342Z,0
2016-03-27T00:19:18.330Z,0
2016-03-27T00:20:18.317Z,0
2016-03-27T00:21:18.305Z,0
2016-03-27T00:22:18.280Z,0
2016-03-27T00:23:18.277Z,0
2016-03-27T00:24:18.260Z,0
2016-03-27T00:25:18.257Z,0
2016-03-27T00:26:18.254Z,0
2016-03-27T00:27:18.237Z,0
2016-03-27T00:28:18.237Z,0
2016-03-27T00:29:18.254Z,0
2016-03-27T00:30:18.238Z,0
2016-03-27T00:31:18.270Z,0
2016-03-27T00:32:18.239Z,0
2016-03-27T00:33:18.226Z,0
2016-03-27T00:34:18.243Z,0
2016-03-27T00:35:18.245Z,0
2016-03-27T00:36:18.262Z,0
2016-03-27T00:37:18.249Z,0
2016-03-27T00:38:18.237Z,0
2016-03-27T00:39:18.240Z,0
2016-03-27T00:40:18.242Z,0
2016-03-27T00:41:18.245Z,0
2016-03-27T00:42:18.231Z,0
2016-03-27T00:43:18.235Z,0
2016-03-27T00:44:18.237Z,0
2016-03-27T00:45:18.239Z,0
2016-03-27T00:46:18.726Z,0
2016-03-27T00:47:18.229Z,0
2016-03-27T00:48:18.232Z,0
2016-03-27T00:49:18.219Z,0
2016-03-27T00:50:19.815Z,0
2016-03-27T00:51:18.225Z,0
2016-03-27T00:52:18.243Z,0
2016-03-27T00:53:18.245Z,0
2016-03-27T00:54:18.247Z,0
2016-03-27T00:55:18.251Z,0
2016-03-27T00:56:18.222Z,0
2016-03-27T00:57:18.209Z,0
2016-03-27T00:58:18.212Z,0
2016-03-27T00:59:18.214Z,0
2016-03-27T01:00:18.217Z,0
2016-03-27T01:01:18.299Z,0
2016-03-27T01:02:18.207Z,0
2016-03-27T01:03:18.225Z,0
2016-03-27T01:04:18.228Z,0
2016-03-27T01:05:18.230Z,0
2016-03-27T01:06:18.234Z,0
2016-03-27T01:07:18.080Z,0
2016-03-27T01:08:18.242Z,0
2016-03-27T01:09:18.230Z,0
2016-03-27T01:10:18.233Z,0
2016-03-27T01:11:18.219Z,0
2016-03-27T01:12:18.223Z,0
2016-03-27T01:13:18.209Z,0
2016-03-27T01:14:18.211Z,0
2016-03-27T01:15:18.215Z,0
2016-03-27T01:16:18.217Z,0
2016-03-27T01:17:18.219Z,0
2016-03-27T01:18:18.239Z,0
2016-03-27T01:19:18.225Z,0
2016-03-27T01:20:18.213Z,0
2016-03-27T01:21:18.216Z,0
2016-03-27T01:22:18.218Z,0
2016-03-27T01:23:18.221Z,0
2016-03-27T01:24:18.224Z,0
2016-03-27T01:25:18.210Z,0
2016-03-27T01:26:18.212Z,0
2016-03-27T01:27:18.216Z,0
2016-03-27T01:28:18.218Z,0
2016-03-27T01:29:18.221Z,0
2016-03-27T01:30:18.224Z,0
2016-03-27T01:31:18.226Z,0
2016-03-27T01:32:18.214Z,0
2016-03-27T01:33:18.217Z,0
2016-03-27T01:34:18.219Z,0
2016-03-27T01:35:18.222Z,0
2016-03-27T01:36:18.240Z,0
2016-03-27T01:37:18.227Z,0
2016-03-27T01:38:18.230Z,0
2016-03-27T01:39:18.217Z,0
2016-03-27T01:40:18.220Z,0
2016-03-27T01:41:18.207Z,0
2016-03-27T01:42:18.209Z,0
2016-03-27T01:43:18.211Z,0
2016-03-27T01:44:18.230Z,0
2016-03-27T01:45:18.217Z,0
2016-03-27T01:46:18.048Z,0
2016-03-27T01:47:18.222Z,0
2016-03-27T01:48:18.225Z,0
2016-03-27T01:49:18.213Z,0
2016-03-27T01:50:18.231Z,0
2016-03-27T01:51:18.233Z,0
2016-03-27T01:52:18.221Z,0
2016-03-27T01:53:18.208Z,0
2016-03-27T01:54:18.210Z,0
2016-03-27T01:55:18.213Z,0
2016-03-27T01:56:18.200Z,0
2016-03-27T01:57:18.218Z,0
2016-03-27T01:58:18.205Z,0
2016-03-27T01:59:18.208Z,0
2016-03-27T02:00:18.179Z,0
2016-03-27T02:01:18.213Z,0
2016-03-27T02:02:18.201Z,0
2016-03-27T02:03:18.234Z,0
2016-03-27T02:04:18.222Z,0
2016-03-27T02:05:18.209Z,0
2016-03-27T02:06:18.196Z,0
2016-03-27T02:07:17.881Z,0
2016-03-27T02:08:18.053Z,0
2016-03-27T02:09:18.039Z,0
2016-03-27T02:10:20.460Z,0
2016-03-27T02:11:18.212Z,0
2016-03-27T02:12:18.198Z,0
2016-03-27T02:13:18.202Z,0
2016-03-27T02:14:18.204Z,0
2016-03-27T02:15:18.222Z,0
2016-03-27T02:16:18.209Z,0
2016-03-27T02:17:18.478Z,0
2016-03-27T02:18:18.200Z,0
2016-03-27T02:19:18.203Z,0
2016-03-27T02:20:18.205Z,0
2016-03-27T02:21:18.208Z,0
2016-03-27T02:22:18.195Z,0
2016-03-27T02:23:18.197Z,0
2016-03-27T02:24:18.199Z,0
2016-03-27T02:25:18.218Z,0
2016-03-27T02:26:18.221Z,0
2016-03-27T02:27:18.208Z,0
2016-03-27T02:28:18.211Z,0
2016-03-27T02:29:18.198Z,0
2016-03-27T02:30:18.169Z,0
2016-03-27T02:31:18.204Z,0
2016-03-27T02:32:18.190Z,0
2016-03-27T02:33:18.209Z,0
2016-03-27T02:34:18.226Z,0
2016-03-27T02:35:18.199Z,0
2016-03-27T02:36:18.201Z,0
2016-03-27T02:37:18.188Z,0
2016-03-27T02:38:18.191Z,0
2016-03-27T02:39:18.193Z,0
2016-03-27T02:40:18.196Z,0
2016-03-27T02:41:18.199Z,0
2016-03-27T02:42:18.186Z,0
2016-03-27T02:43:18.189Z,0
2016-03-27T02:44:18.206Z,0
2016-03-27T02:45:18.209Z,0
2016-03-27T02:46:18.212Z,0
2016-03-27T02:47:18.200Z,0
2016-03-27T02:48:18.202Z,0
2016-03-27T02:49:18.033Z,0
2016-03-27T02:50:18.192Z,0
2016-03-27T02:51:18.038Z,0
2016-03-27T02:52:18.181Z,0
2016-03-27T02:53:18.184Z,0
2016-03-27T02:54:18.186Z,0
2016-03-27T02:55:18.189Z,0
2016-03-27T02:56:18.192Z,0
2016-03-27T02:57:18.194Z,0
2016-03-27T02:58:18.183Z,0
2016-03-27T02:59:18.200Z,0
2016-03-27T03:00:18.187Z,0
2016-03-27T03:01:18.175Z,0
2016-03-27T03:02:18.255Z,0
2016-03-27T03:03:18.180Z,0
2016-03-27T03:04:18.183Z,0
2016-03-27T03:05:18.185Z,0
2016-03-27T03:06:18.173Z,0
2016-03-27T03:07:18.176Z,0
2016-03-27T03:08:18.178Z,0
2016-03-27T03:09:18.164Z,0
2016-03-27T03:10:18.168Z,0
2016-03-27T03:11:18.170Z,0
2016-03-27T03:12:18.173Z,0
2016-03-27T03:13:18.192Z,0
2016-03-27T03:14:18.194Z,0
2016-03-27T03:15:18.197Z,0
2016-03-27T03:16:18.184Z,0
2016-03-27T03:17:18.467Z,0
2016-03-27T03:18:18.173Z,0
2016-03-27T03:19:18.176Z,0
2016-03-27T03:20:18.178Z,0
2016-03-27T03:21:18.167Z,0
2016-03-27T03:22:18.169Z,0
2016-03-27T03:23:18.171Z,0
2016-03-27T03:24:18.175Z,0
2016-03-27T03:25:18.161Z,0
2016-03-27T03:26:18.164Z,0
2016-03-27T03:27:18.166Z,0
2016-03-27T03:28:18.185Z,0
2016-03-27T03:29:18.187Z,0
2016-03-27T03:30:18.175Z,0
2016-03-27T03:31:18.177Z,0
2016-03-27T03:32:18.226Z,0
2016-03-27T03:33:18.167Z,0
2016-03-27T03:34:18.169Z,0
2016-03-27T03:35:18.171Z,0
2016-03-27T03:36:18.175Z,0
2016-03-27T03:37:18.162Z,0
2016-03-27T03:38:18.165Z,0
2016-03-27T03:39:18.168Z,0
2016-03-27T03:40:18.170Z,0
2016-03-27T03:41:18.188Z,0
2016-03-27T03:42:18.176Z,0
2016-03-27T03:43:18.162Z,0
2016-03-27T03:44:18.181Z,0
2016-03-27T03:45:18.168Z,0
2016-03-27T03:46:18.170Z,0
2016-03-27T03:47:18.361Z,0
2016-03-27T03:48:18.161Z,0
2016-03-27T03:49:18.163Z,0
2016-03-27T03:50:18.150Z,0
2016-03-27T03:51:18.169Z,0
2016-03-27T03:52:18.155Z,0
2016-03-27T03:53:18.158Z,0
2016-03-27T03:54:18.177Z,0
2016-03-27T03:55:18.007Z,0
2016-03-27T03:56:18.167Z,0
2016-03-27T03:57:18.153Z,0
2016-03-27T03:58:18.156Z,0
2016-03-27T03:59:18.158Z,0
2016-03-27T04:00:18.130Z,0
2016-03-27T04:01:18.149Z,0
2016-03-27T04:02:18.869Z,0
2016-03-27T04:03:18.154Z,0
2016-03-27T04:04:18.141Z,0
2016-03-27T04:05:18.144Z,0
2016-03-27T04:06:18.146Z,0
2016-03-27T04:07:17.978Z,0
2016-03-27T04:08:18.153Z,0
2016-03-27T04:09:18.156Z,0
2016-03-27T04:10:18.143Z,0
2016-03-27T04:11:18.145Z,0
2016-03-27T04:12:18.164Z,0
2016-03-27T04:13:18.151Z,0
2016-03-27T04:14:18.170Z,0
2016-03-27T04:15:18.172Z,0
2016-03-27T04:16:18.159Z,0
2016-03-27T04:17:18.334Z,0
2016-03-27T04:18:18.134Z,0
2016-03-27T04:19:17.996Z,0
2016-03-27T04:20:18.138Z,0
2016-03-27T04:21:18.142Z,0
2016-03-27T04:22:18.144Z,0
2016-03-27T04:23:18.147Z,0
2016-03-27T04:24:18.150Z,0
2016-03-27T04:25:18.168Z,0
2016-03-27T04:26:18.171Z,0
2016-03-27T04:27:18.143Z,0
2016-03-27T04:28:18.145Z,0
2016-03-27T04:29:17.959Z,0
2016-03-27T04:30:18.119Z,0
2016-03-27T04:31:18.137Z,0
2016-03-27T04:32:18.109Z,0
2016-03-27T04:33:18.127Z,0
2016-03-27T04:34:18.129Z,0
2016-03-27T04:35:18.132Z,0
2016-03-27T04:36:18.135Z,0
2016-03-27T04:37:18.138Z,0
2016-03-27T04:38:18.140Z,0
2016-03-27T04:39:18.128Z,0
2016-03-27T04:40:18.130Z,0
2016-03-27T04:41:18.134Z,0
2016-03-27T04:42:18.136Z,0
2016-03-27T04:43:18.138Z,0
2016-03-27T04:44:18.125Z,0
2016-03-27T04:45:18.112Z,0
2016-03-27T04:46:18.115Z,0
2016-03-27T04:47:18.367Z,0
2016-03-27T04:48:18.120Z,0
2016-03-27T04:49:18.123Z,0
2016-03-27T04:50:18.125Z,0
2016-03-27T04:51:18.128Z,0
2016-03-27T04:52:18.131Z,0
2016-03-27T04:53:18.133Z,0
2016-03-27T04:54:18.136Z,0
2016-03-27T04:55:18.139Z,0
2016-03-27T04:56:18.141Z,0
2016-03-27T04:57:18.129Z,0
2016-03-27T04:58:18.132Z,0
2016-03-27T04:59:18.134Z,0
2016-03-27T05:00:18.103Z,0
2016-03-27T05:01:18.106Z,0
2016-03-27T05:02:18.202Z,0
2016-03-27T05:03:18.111Z,0
2016-03-27T05:04:18.129Z,0
2016-03-27T05:05:18.117Z,0
2016-03-27T05:06:18.134Z,5
2016-03-27T05:07:18.138Z,5
2016-03-27T05:08:18.125Z,5
2016-03-27T05:09:18.112Z,5
2016-03-27T05:10:18.115Z,5
2016-03-27T05:11:18.117Z,5
2016-03-27T05:12:18.104Z,5
2016-03-27T05:13:18.106Z,5
2016-03-27T05:14:18.109Z,10
2016-03-27T05:15:18.096Z,10
2016-03-27T05:16:18.115Z,10
2016-03-27T05:17:18.149Z,10
2016-03-27T05:18:18.105Z,15
2016-03-27T05:19:18.108Z,15
2016-03-27T05:20:18.094Z,15
2016-03-27T05:21:18.097Z,15
2016-03-27T05:22:18.100Z,25
2016-03-27T05:23:18.102Z,30
2016-03-27T05:24:18.105Z,45
2016-03-27T05:25:18.108Z,55
2016-03-27T05:26:18.126Z,50
2016-03-27T05:27:18.130Z,35
2016-03-27T05:28:18.132Z,35
2016-03-27T05:29:18.087Z,35
2016-03-27T05:30:18.091Z,45
2016-03-27T05:31:18.093Z,55
2016-03-27T05:32:18.173Z,80
2016-03-27T05:33:18.098Z,95
2016-03-27T05:34:18.101Z,95
2016-03-27T05:35:18.104Z,95
2016-03-27T05:36:18.091Z,100
2016-03-27T05:37:18.093Z,105
2016-03-27T05:38:18.095Z,95
2016-03-27T05:39:18.099Z,70
2016-03-27T05:40:18.101Z,50
2016-03-27T05:41:18.119Z,50
2016-03-27T05:42:18.154Z,55
2016-03-27T05:43:18.140Z,55
2016-03-27T05:44:18.112Z,55
2016-03-27T05:45:18.100Z,60
2016-03-27T05:46:18.086Z,65
2016-03-27T05:47:18.120Z,70
2016-03-27T05:48:18.091Z,75
2016-03-27T05:49:18.110Z,75
2016-03-27T05:50:18.113Z,75
2016-03-27T05:51:18.100Z,80
2016-03-27T05:52:18.102Z,80
2016-03-27T05:53:18.106Z,80
2016-03-27T05:54:18.092Z,85
2016-03-27T05:55:18.126Z,85
2016-03-27T05:56:18.129Z,85
2016-03-27T05:57:18.132Z,90
2016-03-27T05:58:18.102Z,95
2016-03-27T05:59:18.121Z,95
2016-03-27T06:00:18.108Z,100
2016-03-27T06:01:18.110Z,105
2016-03-27T06:02:18.130Z,110
2016-03-27T06:03:18.101Z,120
2016-03-27T06:04:18.087Z,145
2016-03-27T06:05:18.107Z,200
2016-03-27T06:06:18.109Z,305
2016-03-27T06:07:18.111Z,385
2016-03-27T06:08:18.099Z,350
2016-03-27T06:09:18.117Z,350
2016-03-27T06:10:18.120Z,275
2016-03-27T06:11:18.123Z,290
2016-03-27T06:12:18.125Z,290
2016-03-27T06:13:18.112Z,280
2016-03-27T06:14:18.099Z,290
2016-03-27T06:15:18.101Z,315
2016-03-27T06:16:18.103Z,315
2016-03-27T06:17:18.107Z,355
2016-03-27T06:18:18.109Z,340
2016-03-27T06:19:18.112Z,325
2016-03-27T06:20:18.115Z,300
2016-03-27T06:21:18.117Z,280
2016-03-27T06:22:18.136Z,265
2016-03-27T06:23:18.139Z,285
2016-03-27T06:24:18.141Z,325
2016-03-27T06:25:18.128Z,285
2016-03-27T06:26:18.131Z,300
2016-03-27T06:27:18.133Z,310
2016-03-27T06:28:18.137Z,275
2016-03-27T06:29:18.155Z,270
2016-03-27T06:30:18.157Z,240
2016-03-27T06:31:18.145Z,250
2016-03-27T06:32:18.132Z,225
2016-03-27T06:33:18.134Z,230
2016-03-27T06:34:18.138Z,200
2016-03-27T06:35:18.155Z,190
2016-03-27T06:36:18.158Z,215
2016-03-27T06:37:18.160Z,200
2016-03-27T06:38:18.179Z,205
2016-03-27T06:39:18.182Z,205
2016-03-27T06:40:18.184Z,185
2016-03-27T06:41:18.171Z,185
2016-03-27T06:42:18.174Z,180
2016-03-27T06:43:18.192Z,180
2016-03-27T06:44:18.180Z,195
2016-03-27T06:45:18.167Z,205
2016-03-27T06:46:18.170Z,170
2016-03-27T06:47:18.187Z,180
2016-03-27T06:48:18.190Z,185
2016-03-27T06:49:18.193Z,160
2016-03-27T06:50:18.181Z,175
2016-03-27T06:51:18.198Z,170
2016-03-27T06:52:18.186Z,180
2016-03-27T06:53:18.188Z,200
2016-03-27T06:54:18.222Z,180
2016-03-27T06:55:18.208Z,175
2016-03-27T06:56:18.212Z,180
2016-03-27T06:57:18.199Z,150
2016-03-27T06:58:18.201Z,145
2016-03-27T06:59:18.220Z,135
2016-03-27T07:00:18.207Z,125
2016-03-27T07:01:18.210Z,120
2016-03-27T07:02:18.197Z,110
2016-03-27T07:03:18.199Z,105
2016-03-27T07:04:18.233Z,100
2016-03-27T07:05:18.221Z,90
2016-03-27T07:06:18.223Z,85
2016-03-27T07:07:18.241Z,75
2016-03-27T07:08:18.260Z,50
2016-03-27T07:09:18.247Z,45
2016-03-27T07:10:18.234Z,35
2016-03-27T07:11:18.236Z,40
2016-03-27T07:12:18.240Z,40
2016-03-27T07:13:18.242Z,45
2016-03-27T07:14:18.228Z,40
2016-03-27T07:15:18.248Z,40
2016-03-27T07:16:18.250Z,35
2016-03-27T07:17:18.253Z,30
2016-03-27T07:18:18.256Z,30
2016-03-27T07:19:18.258Z,30
2016-03-27T07:20:18.292Z,30
2016-03-27T07:21:18.279Z,30
2016-03-27T07:22:18.281Z,30
2016-03-27T07:23:18.269Z,30
2016-03-27T07:24:18.272Z,35
2016-03-27T07:25:18.275Z,35
2016-03-27T07:26:18.261Z,40
2016-03-27T07:27:18.264Z,40
2016-03-27T07:28:18.267Z,40
2016-03-27T07:29:18.270Z,45
2016-03-27T07:30:18.287Z,55
2016-03-27T07:31:18.275Z,65
2016-03-27T07:32:18.262Z,80
2016-03-27T07:33:18.280Z,95
2016-03-27T07:34:18.283Z,105
2016-03-27T07:35:18.301Z,105
2016-03-27T07:36:18.304Z,100
2016-03-27T07:37:18.307Z,105
2016-03-27T07:38:18.309Z,105
2016-03-27T07:39:18.296Z,110
2016-03-27T07:40:18.299Z,110
2016-03-27T07:41:18.286Z,115
2016-03-27T07:42:18.305Z,115
2016-03-27T07:43:18.292Z,120
2016-03-27T07:44:18.309Z,120
2016-03-27T07:45:18.313Z,120
2016-03-27T07:46:18.300Z,115
2016-03-27T07:47:18.302Z,125
2016-03-27T07:48:18.305Z,110
2016-03-27T07:49:18.323Z,110
2016-03-27T07:50:18.357Z,115
2016-03-27T07:51:18.328Z,125
2016-03-27T07:52:18.316Z,130
2016-03-27T07:53:18.319Z,140
2016-03-27T07:54:18.321Z,150
2016-03-27T07:55:18.324Z,225
2016-03-27T07:56:18.327Z,205
2016-03-27T07:57:18.329Z,300
2016-03-27T07:58:18.333Z,275
2016-03-27T07:59:18.335Z,200
2016-03-27T08:00:18.337Z,180
2016-03-27T08:01:18.325Z,195
2016-03-27T08:02:18.327Z,195
2016-03-27T08:03:18.345Z,220
2016-03-27T08:04:18.348Z,215
2016-03-27T08:05:18.351Z,170
2016-03-27T08:06:18.353Z,160
2016-03-27T08:07:18.341Z,160
2016-03-27T08:08:18.343Z,160
2016-03-27T08:09:18.329Z,165
2016-03-27T08:10:18.349Z,175
2016-03-27T08:11:18.351Z,175
2016-03-27T08:12:18.337Z,185
2016-03-27T08:13:18.357Z,260
2016-03-27T08:14:18.375Z,275
2016-03-27T08:15:18.346Z,265
2016-03-27T08:16:18.381Z,225
2016-03-27T08:17:18.367Z,225
2016-03-27T08:18:18.370Z,220
2016-03-27T08:19:18.357Z,205
2016-03-27T08:20:18.391Z,195
2016-03-27T08:21:18.378Z,195
2016-03-27T08:22:18.397Z,190
2016-03-27T08:23:18.384Z,185
2016-03-27T08:24:18.370Z,180
2016-03-27T08:25:18.373Z,180
2016-03-27T08:26:18.375Z,190
2016-03-27T08:27:18.378Z,195
2016-03-27T08:28:18.381Z,195
2016-03-27T08:29:18.399Z,200
2016-03-27T08:30:18.386Z,210
2016-03-27T08:31:18.389Z,200
2016-03-27T08:32:18.392Z,175
2016-03-27T08:33:18.441Z,160
2016-03-27T08:34:18.413Z,155
2016-03-27T08:35:18.400Z,150
2016-03-27T08:36:18.402Z,150
2016-03-27T08:37:18.405Z,145
2016-03-27T08:38:18.252Z,150
2016-03-27T08:39:18.410Z,155
2016-03-27T08:40:18.414Z,170
2016-03-27T08:41:18.416Z,195
2016-03-27T08:42:18.418Z,195
2016-03-27T08:43:18.406Z,200
2016-03-27T08:44:18.440Z,220
2016-03-27T08:45:18.426Z,225
2016-03-27T08:46:18.445Z,225
2016-03-27T08:47:18.448Z,225
2016-03-27T08:48:18.450Z,230
2016-03-27T08:49:18.438Z,215
2016-03-27T08:50:18.518Z,220
2016-03-27T08:51:18.427Z,215
2016-03-27T08:52:18.462Z,220
2016-03-27T08:53:18.495Z,225
2016-03-27T08:54:18.310Z,220
2016-03-27T08:55:18.454Z,200
2016-03-27T08:56:18.472Z,210
2016-03-27T08:57:18.725Z,205
2016-03-27T08:58:18.462Z,200
2016-03-27T08:59:18.386Z,220
2016-03-27T09:00:18.452Z,240
2016-03-27T09:01:18.469Z,275
2016-03-27T09:02:18.488Z,285
2016-03-27T09:03:18.710Z,300
2016-03-27T09:04:18.477Z,275
2016-03-27T09:05:18.481Z,275
2016-03-27T09:06:18.483Z,260
2016-03-27T09:07:18.486Z,235
2016-03-27T09:08:18.486Z,255
2016-03-27T09:09:18.474Z,285
2016-03-27T09:10:18.492Z,315
2016-03-27T09:11:18.494Z,305
2016-03-27T09:12:18.497Z,280
2016-03-27T09:13:18.500Z,255
2016-03-27T09:14:18.503Z,240
2016-03-27T09:15:18.521Z,235
2016-03-27T09:16:18.540Z,220
2016-03-27T09:17:18.543Z,210
2016-03-27T09:18:18.685Z,190
2016-03-27T09:19:18.532Z,175
2016-03-27T09:20:18.519Z,170
2016-03-27T09:21:18.537Z,175
2016-03-27T09:22:18.541Z,180
2016-03-27T09:23:18.543Z,195
2016-03-27T09:24:18.541Z,205
2016-03-27T09:25:18.548Z,210
2016-03-27T09:26:18.522Z,220
2016-03-27T09:27:18.497Z,230
2016-03-27T09:28:18.504Z,235
2016-03-27T09:29:18.498Z,240
2016-03-27T09:30:18.513Z,240
2016-03-27T09:31:18.511Z,245
2016-03-27T09:32:18.509Z,250
2016-03-27T09:33:19.054Z,255
2016-03-27T09:34:18.507Z,260
2016-03-27T09:35:18.508Z,265
2016-03-27T09:36:18.509Z,265
2016-03-27T09:37:18.495Z,265
2016-03-27T09:38:18.512Z,265
2016-03-27T09:39:18.514Z,265
2016-03-27T09:40:18.516Z,265
2016-03-27T09:41:18.533Z,255
2016-03-27T09:42:18.521Z,255
2016-03-27T09:43:18.522Z,250
2016-03-27T09:44:18.524Z,250
2016-03-27T09:45:18.527Z,250
2016-03-27T09:46:18.544Z,240
2016-03-27T09:47:18.532Z,245
2016-03-27T09:48:19.049Z,245
2016-03-27T09:49:18.536Z,245
2016-03-27T09:50:18.554Z,225
2016-03-27T09:51:18.573Z,215
2016-03-27T09:52:18.545Z,240
2016-03-27T09:53:18.578Z,245
2016-03-27T09:54:18.565Z,240
2016-03-27T09:55:18.567Z,240
2016-03-27T09:56:18.571Z,240
2016-03-27T09:57:18.573Z,235
2016-03-27T09:58:18.591Z,225
2016-03-27T09:59:18.579Z,220
2016-03-27T10:00:18.597Z,220
2016-03-27T10:01:18.427Z,220
2016-03-27T10:02:18.587Z,230
2016-03-27T10:03:25.014Z,225
2016-03-27T10:04:18.608Z,225
2016-03-27T10:05:18.611Z,225
2016-03-27T10:06:18.644Z,220
2016-03-27T10:07:18.616Z,215
2016-03-27T10:08:18.619Z,210
2016-03-27T10:09:18.636Z,200
2016-03-27T10:10:18.624Z,190
2016-03-27T10:11:18.658Z,185
2016-03-27T10:12:18.629Z,185
2016-03-27T10:13:18.663Z,200
2016-03-27T10:14:18.650Z,185
2016-03-27T10:15:18.652Z,195
2016-03-27T10:16:18.671Z,190
2016-03-27T10:17:18.658Z,185
2016-03-27T10:18:19.332Z,185
2016-03-27T10:19:18.679Z,190
2016-03-27T10:20:18.666Z,195
2016-03-27T10:21:18.684Z,205
2016-03-27T10:22:18.672Z,210
2016-03-27T10:23:18.674Z,215
2016-03-27T10:24:18.692Z,215
2016-03-27T10:25:18.696Z,210
2016-03-27T10:26:18.698Z,210
2016-03-27T10:27:18.700Z,210
2016-03-27T10:28:18.720Z,200
2016-03-27T10:29:18.706Z,195
2016-03-27T10:30:18.709Z,195
2016-03-27T10:31:18.711Z,190
2016-03-27T10:32:18.714Z,195
2016-03-27T10:33:18.888Z,200
2016-03-27T10:34:18.720Z,210
2016-03-27T10:35:18.722Z,215
2016-03-27T10:36:18.740Z,225
2016-03-27T10:37:18.744Z,230
2016-03-27T10:38:18.746Z,240
2016-03-27T10:39:18.764Z,260
2016-03-27T10:40:18.752Z,260
2016-03-27T10:41:18.754Z,265
2016-03-27T10:42:18.757Z,255
2016-03-27T10:43:18.760Z,250
2016-03-27T10:44:18.762Z,250
2016-03-27T10:45:18.765Z,245
2016-03-27T10:46:18.768Z,245
2016-03-27T10:47:18.786Z,250
2016-03-27T10:48:18.867Z,250
2016-03-27T10:49:18.791Z,250
2016-03-27T10:50:18.793Z,250
2016-03-27T10:51:18.796Z,250
2016-03-27T10:52:18.815Z,245
2016-03-27T10:53:18.801Z,245
2016-03-27T10:54:18.820Z,250
2016-03-27T10:55:18.823Z,250
2016-03-27T10:56:18.826Z,250
2016-03-27T10:57:18.828Z,255
2016-03-27T10:58:18.847Z,255
2016-03-27T10:59:18.850Z,265
2016-03-27T11:00:18.836Z,275
2016-03-27T11:01:18.855Z,285
2016-03-27T11:02:18.873Z,285
2016-03-27T11:03:18.875Z,290
2016-03-27T11:04:18.864Z,285
2016-03-27T11:05:18.866Z,290
2016-03-27T11:06:18.883Z,290
2016-03-27T11:07:18.856Z,270
2016-03-27T11:08:18.858Z,265
2016-03-27T11:09:18.891Z,275
2016-03-27T11:10:18.879Z,270
2016-03-27T11:11:18.944Z,270
2016-03-27T11:12:18.885Z,275
2016-03-27T11:13:18.887Z,280
2016-03-27T11:14:18.905Z,270
2016-03-27T11:15:18.908Z,270
2016-03-27T11:16:18.895Z,270
2016-03-27T11:17:18.913Z,265
2016-03-27T11:18:18.979Z,250
2016-03-27T11:19:18.918Z,230
2016-03-27T11:20:18.922Z,210
2016-03-27T11:21:18.955Z,210
2016-03-27T11:22:18.926Z,220
2016-03-27T11:23:18.930Z,225
2016-03-27T11:24:18.948Z,220
2016-03-27T11:25:18.934Z,225
2016-03-27T11:26:18.968Z,230
2016-03-27T11:27:18.940Z,245
2016-03-27T11:28:18.959Z,255
2016-03-27T11:29:18.976Z,255
2016-03-27T11:30:18.964Z,250
2016-03-27T11:31:18.826Z,255
2016-03-27T11:32:18.984Z,250
2016-03-27T11:33:18.878Z,245
2016-03-27T11:34:18.990Z,240
2016-03-27T11:35:18.978Z,245
2016-03-27T11:36:19.028Z,235
2016-03-27T11:37:18.998Z,230
2016-03-27T11:38:19.000Z,210
2016-03-27T11:39:18.863Z,210
2016-03-27T11:40:19.006Z,210
2016-03-27T11:41:19.041Z,200
2016-03-27T11:42:19.011Z,200
2016-03-27T11:43:19.061Z,210
2016-03-27T11:44:19.033Z,215
2016-03-27T11:45:19.035Z,210
2016-03-27T11:46:19.069Z,210
2016-03-27T11:47:19.041Z,215
2016-03-27T11:48:19.090Z,215
2016-03-27T11:49:19.046Z,215
2016-03-27T11:50:19.049Z,215
2016-03-27T11:51:19.083Z,215
2016-03-27T11:52:19.054Z,225
2016-03-27T11:53:19.073Z,235
2016-03-27T11:54:19.091Z,225
2016-03-27T11:55:19.078Z,215
2016-03-27T11:56:19.081Z,205
2016-03-27T11:57:19.084Z,195
2016-03-27T11:58:19.087Z,200
2016-03-27T11:59:19.104Z,205
2016-03-27T12:00:19.092Z,200
2016-03-27T12:01:19.095Z,190
2016-03-27T12:02:19.112Z,180
2016-03-27T12:03:19.146Z,170
2016-03-27T12:04:19.134Z,170
2016-03-27T12:05:19.120Z,175
2016-03-27T12:06:19.155Z,195
2016-03-27T12:07:19.142Z,205
2016-03-27T12:08:19.128Z,215
2016-03-27T12:09:19.147Z,205
2016-03-27T12:10:19.150Z,225
2016-03-27T12:11:19.184Z,235
2016-03-27T12:12:19.155Z,230
2016-03-27T12:13:19.142Z,230
2016-03-27T12:14:19.176Z,225
2016-03-27T12:15:19.163Z,215
2016-03-27T12:16:19.149Z,195
2016-03-27T12:17:19.185Z,200
2016-03-27T12:18:19.218Z,195
2016-03-27T12:19:19.174Z,175
2016-03-27T12:20:19.192Z,185
2016-03-27T12:21:19.196Z,175
2016-03-27T12:22:19.213Z,175
2016-03-27T12:23:19.200Z,200
2016-03-27T12:24:19.219Z,195
2016-03-27T12:25:19.190Z,200
2016-03-27T12:26:19.239Z,205
2016-03-27T12:27:19.211Z,205
2016-03-27T12:28:19.229Z,185
2016-03-27T12:29:19.217Z,180
2016-03-27T12:30:19.250Z,165
2016-03-27T12:31:19.222Z,165
2016-03-27T12:32:19.256Z,160
2016-03-27T12:33:19.242Z,160
2016-03-27T12:34:19.245Z,165
2016-03-27T12:35:19.264Z,160
2016-03-27T12:36:19.282Z,160
2016-03-27T12:37:19.253Z,170
2016-03-27T12:38:19.256Z,185
2016-03-27T12:39:19.290Z,190
2016-03-27T12:40:19.277Z,190
2016-03-27T12:41:19.264Z,185
2016-03-27T12:42:19.297Z,185
2016-03-27T12:43:19.286Z,175
2016-03-27T12:44:19.288Z,170
2016-03-27T12:45:19.321Z,165
2016-03-27T12:46:19.308Z,165
2016-03-27T12:47:19.296Z,160
2016-03-27T12:48:19.330Z,155
2016-03-27T12:49:19.301Z,160
2016-03-27T12:50:19.320Z,165
2016-03-27T12:51:19.338Z,175
2016-03-27T12:52:19.324Z,185
2016-03-27T12:53:19.344Z,195
2016-03-27T12:54:19.315Z,205
2016-03-27T12:55:19.333Z,220
2016-03-27T12:56:19.367Z,220
2016-03-27T12:57:19.354Z,225
2016-03-27T12:58:19.357Z,225
2016-03-27T12:59:19.375Z,225
2016-03-27T13:00:19.362Z,220
2016-03-27T13:01:19.365Z,205
2016-03-27T13:02:19.414Z,195
2016-03-27T13:03:19.386Z,185
2016-03-27T13:04:19.404Z,185
2016-03-27T13:05:19.407Z,185
2016-03-27T13:06:19.394Z,185
2016-03-27T13:07:19.381Z,185
2016-03-27T13:08:19.430Z,185
2016-03-27T13:09:19.402Z,175
2016-03-27T13:10:19.405Z,165
2016-03-27T13:11:19.455Z,165
2016-03-27T13:12:19.410Z,165
2016-03-27T13:13:23.913Z,170
2016-03-27T13:14:19.431Z,165
2016-03-27T13:15:19.433Z,170
2016-03-27T13:16:19.421Z,180
2016-03-27T13:17:19.424Z,185
2016-03-27T13:18:19.458Z,185
2016-03-27T13:19:19.445Z,190
2016-03-27T13:20:19.447Z,190
2016-03-27T13:21:19.450Z,195
2016-03-27T13:22:19.452Z,195
2016-03-27T13:23:19.454Z,190
2016-03-27T13:24:19.443Z,185
2016-03-27T13:25:19.445Z,185
2016-03-27T13:26:19.463Z,185
2016-03-27T13:27:19.482Z,165
2016-03-27T13:28:19.485Z,155
2016-03-27T13:29:19.487Z,155
2016-03-27T13:30:19.489Z,155
2016-03-27T13:31:19.493Z,155
2016-03-27T13:32:19.495Z,150
2016-03-27T13:33:19.498Z,140
2016-03-27T13:34:19.501Z,140
2016-03-27T13:35:19.519Z,135
2016-03-27T13:36:19.506Z,130
2016-03-27T13:37:19.524Z,120
2016-03-27T13:38:19.527Z,115
2016-03-27T13:39:19.530Z,110
2016-03-27T13:40:19.533Z,110
2016-03-27T13:41:19.581Z,105
2016-03-27T13:42:19.553Z,105
2016-03-27T13:43:19.541Z,105
2016-03-27T13:44:19.543Z,100
2016-03-27T13:45:19.546Z,105
2016-03-27T13:46:19.564Z,100
2016-03-27T13:47:33.726Z,100
2016-03-27T13:48:19.570Z,100
2016-03-27T13:49:19.572Z,105
2016-03-27T13:50:19.574Z,110
2016-03-27T13:51:19.577Z,110
2016-03-27T13:52:19.595Z,115
2016-03-27T13:53:19.583Z,115
2016-03-27T13:54:19.570Z,120
2016-03-27T13:55:19.588Z,125
2016-03-27T13:56:19.591Z,130
2016-03-27T13:57:19.594Z,130
2016-03-27T13:58:19.596Z,135
2016-03-27T13:59:19.598Z,145
2016-03-27T14:00:19.618Z,145
2016-03-27T14:01:19.604Z,150
2016-03-27T14:02:19.607Z,150
2016-03-27T14:03:19.625Z,155
2016-03-27T14:04:19.878Z,155
2016-03-27T14:05:19.475Z,155
2016-03-27T14:06:19.633Z,160
2016-03-27T14:07:19.636Z,160
2016-03-27T14:08:19.639Z,155
2016-03-27T14:09:19.642Z,155
2016-03-27T14:10:19.644Z,150